createdAt,value
2023-01-01T17:41:11.271Z,56.82
2023-01-01T17:43:41.837Z,63.09
2023-01-01T17:46:14.025Z,66.08
2023-01-01T17:48:42.764Z,68.27
2023-01-01T17:51:11.390Z,69.35
2023-01-01T17:53:39.985Z,69.62
2023-01-01T17:56:12.237Z,69.32
2023-01-01T17:58:40.784Z,69.36
2023-01-01T18:04:21.605Z,69.86
2023-01-01T18:06:54.460Z,71.83
2023-01-01T18:09:22.947Z,70.56
2023-01-01T18:11:52.188Z,71.28
2023-01-01T18:14:24.480Z,71.02
2023-01-01T18:16:56.535Z,71.07
2023-01-01T18:19:24.423Z,70.94
2023-01-01T18:21:52.311Z,71.17
2023-01-01T18:24:20.201Z,71.03
2023-01-01T18:26:48.383Z,70.73
2023-01-01T18:29:17.686Z,70.22
2023-01-01T18:31:45.720Z,70.25
2023-01-01T18:34:13.659Z,70.44
2023-01-01T18:36:41.941Z,70.99
2023-01-01T18:39:15.934Z,70.92
2023-01-01T18:42:02.171Z,70.68
2023-01-01T18:44:32.670Z,70.45
2023-01-01T18:47:08.852Z,70.48
2023-01-01T18:49:38.639Z,71.26
2023-01-01T18:52:16.175Z,69.80
2023-01-01T18:54:45.335Z,70.47
2023-01-01T18:57:23.670Z,69.67
2023-01-01T18:59:59.231Z,69.63
2023-01-01T19:02:38.892Z,70.96
2023-01-01T19:05:19.396Z,69.66
2023-01-01T19:07:52.380Z,70.04
2023-01-01T19:10:20.363Z,69.80
2023-01-01T19:12:49.670Z,71.69
2023-01-01T19:15:20.998Z,69.71
2023-01-01T19:17:49.274Z,69.92
2023-01-01T19:20:19.518Z,69.31
2023-01-01T19:22:47.775Z,69.58
2023-01-01T19:25:38.388Z,70.55
2023-01-01T19:28:32.555Z,70.38
2023-01-01T19:31:02.771Z,69.52
2023-01-01T19:33:31.812Z,69.76
2023-01-01T19:35:59.932Z,69.29
2023-01-01T19:38:27.917Z,69.27
2023-01-01T19:40:55.929Z,69.99
2023-01-01T19:43:23.823Z,69.14
2023-01-01T19:45:51.812Z,69.09
2023-01-01T19:48:21.090Z,69.38
2023-01-01T19:50:49.018Z,69.02
2023-01-01T19:53:16.962Z,68.90
2023-01-01T19:55:45.018Z,69.03
2023-01-01T19:58:13.175Z,69.36
2023-01-01T20:00:41.139Z,69.17
2023-01-01T20:03:51.337Z,70.15
2023-01-01T20:05:58.449Z,70.65
2023-01-01T20:08:26.929Z,71.14
2023-01-01T20:10:55.156Z,69.88
2023-01-01T20:13:23.187Z,70.43
2023-01-01T20:15:51.130Z,71.09
2023-01-01T20:18:19.491Z,71.53
2023-01-01T20:21:06.248Z,71.34
2023-01-01T20:23:35.790Z,72.20
2023-01-01T20:26:04.405Z,72.24
2023-01-01T20:28:49.736Z,72.94
2023-01-01T20:31:19.868Z,72.72
2023-01-01T20:33:47.970Z,74.63
2023-01-01T20:36:33.361Z,75.99
2023-01-01T20:39:02.795Z,77.08
2023-01-01T20:41:30.784Z,78.54
2023-01-01T20:44:01.778Z,80.45
2023-01-01T20:46:30.765Z,81.79
2023-01-01T20:48:58.824Z,82.55
2023-01-01T20:51:28.046Z,81.31
2023-01-01T20:53:58.527Z,82.25
2023-01-01T20:56:28.520Z,83.18
2023-01-01T20:59:00.410Z,85.53
2023-01-01T21:01:33.005Z,84.88
2023-01-01T21:04:01.001Z,85.12
2023-01-01T21:06:28.906Z,86.54
2023-01-01T21:08:57.003Z,87.10
2023-01-01T21:11:24.977Z,88.08
2023-01-01T21:13:54.246Z,89.90
2023-01-01T21:16:26.151Z,88.10
2023-01-01T21:18:54.117Z,89.19
2023-01-01T21:21:24.589Z,88.95
2023-01-01T21:23:54.693Z,88.19
2023-01-01T21:26:26.886Z,88.44
2023-01-01T21:28:59.608Z,89.05
2023-01-01T21:31:29.445Z,89.46
2023-01-01T21:33:57.389Z,89.17
2023-01-01T21:36:25.328Z,89.71
2023-01-01T21:38:53.356Z,90.53
2023-01-01T21:41:25.024Z,89.18
2023-01-01T21:43:57.873Z,88.85
2023-01-01T21:46:36.558Z,89.29
2023-01-01T21:49:15.601Z,89.97
2023-01-01T21:51:50.079Z,88.72
2023-01-01T21:54:23.121Z,88.54
2023-01-01T21:56:55.573Z,87.79
2023-01-01T21:59:37.179Z,87.95
2023-01-01T22:02:38.994Z,86.43
2023-01-01T22:05:30.490Z,89.30
2023-01-01T22:07:59.256Z,86.65
2023-01-01T22:10:33.881Z,87.97
2023-01-01T22:13:02.194Z,88.78
2023-01-01T22:15:39.422Z,88.63
2023-01-01T22:18:19.507Z,87.92
2023-01-01T22:20:48.509Z,87.70
2023-01-01T22:23:34.964Z,88.07
2023-01-01T22:26:12.771Z,87.06
2023-01-01T22:28:43.882Z,87.34
2023-01-01T22:31:19.415Z,88.32
2023-01-01T22:33:48.576Z,88.25
2023-01-01T22:36:19.333Z,88.33
2023-01-01T22:38:47.260Z,88.71
2023-01-01T22:41:16.141Z,88.74
2023-01-01T22:43:46.859Z,87.81
2023-01-01T22:46:22.974Z,88.06
2023-01-01T22:48:57.524Z,89.28
2023-01-01T22:51:28.850Z,89.67
2023-01-01T22:53:56.744Z,90.36
2023-01-01T22:56:24.650Z,90.20
2023-01-01T22:58:57.281Z,91.73
2023-01-01T23:01:27.164Z,91.86
2023-01-01T23:03:55.131Z,93.22
2023-01-01T23:06:23.261Z,92.73
2023-01-01T23:08:53.162Z,93.31
2023-01-01T23:11:21.527Z,93.42
2023-01-01T23:14:08.829Z,93.27
2023-01-01T23:16:38.114Z,94.59
2023-01-01T23:19:06.358Z,94.32
2023-01-01T23:21:36.751Z,94.69
2023-01-01T23:24:10.015Z,95.68
2023-01-01T23:26:39.025Z,94.87
2023-01-01T23:29:07.375Z,95.09
2023-01-01T23:31:35.987Z,94.84
2023-01-01T23:34:06.139Z,94.78
2023-01-01T23:36:34.963Z,94.36
2023-01-01T23:39:02.898Z,92.40
2023-01-01T23:41:30.795Z,93.68
2023-01-01T23:43:58.734Z,92.83
2023-01-01T23:46:26.659Z,92.74
2023-01-01T23:48:55.622Z,93.03
2023-01-01T23:51:24.873Z,91.77
2023-01-01T23:53:52.773Z,90.83
2023-01-01T23:56:20.872Z,91.64
2023-01-01T23:58:48.759Z,90.98
